sensor_id;sensor_type;location;lat;lon;timestamp;temperature;humidity
14370;DHT22;7268;50.792;0.252;2023-10-31T00:01:50;8.30;99.90
14370;DHT22;7268;50.792;0.252;2023-10-31T00:04:17;8.20;99.90
14370;DHT22;7268;50.792;0.252;2023-10-31T00:06:44;8.10;99.90
14370;DHT22;7268;50.792;0.252;2023-10-31T00:09:11;8.30;99.90
14370;DHT22;7268;50.792;0.252;2023-10-31T00:11:38;8.30;99.90
14370;DHT22;7268;50.792;0.252;2023-10-31T00:14:05;8.40;99.90
14370;DHT22;7268;50.792;0.252;2023-10-31T00:16:52;8.50;99.90
14370;DHT22;7268;50.792;0.252;2023-10-31T00:19:19;8.50;99.90
14370;DHT22;7268;50.792;0.252;2023-10-31T00:21:45;8.70;99.90
14370;DHT22;7268;50.792;0.252;2023-10-31T00:24:12;8.80;99.90
14370;DHT22;7268;50.792;0.252;2023-10-31T00:26:39;8.90;99.90
14370;DHT22;7268;50.792;0.252;2023-10-31T00:29:06;9.00;99.90
14370;DHT22;7268;50.792;0.252;2023-10-31T00:31:33;9.10;99.90
14370;DHT22;7268;50.792;0.252;2023-10-31T00:34:02;9.10;99.90
14370;DHT22;7268;50.792;0.252;2023-10-31T00:36:29;9.10;99.90
14370;DHT22;7268;50.792;0.252;2023-10-31T00:38:56;9.10;99.90
14370;DHT22;7268;50.792;0.252;2023-10-31T00:41:22;9.10;99.90
14370;DHT22;7268;50.792;0.252;2023-10-31T00:43:49;9.10;99.90
14370;DHT22;7268;50.792;0.252;2023-10-31T00:46:16;8.90;99.90
14370;DHT22;7268;50.792;0.252;2023-10-31T00:48:43;8.80;99.90
14370;DHT22;7268;50.792;0.252;2023-10-31T00:51:10;8.80;99.90
14370;DHT22;7268;50.792;0.252;2023-10-31T00:53:38;8.80;99.90
14370;DHT22;7268;50.792;0.252;2023-10-31T00:56:05;8.70;99.90
14370;DHT22;7268;50.792;0.252;2023-10-31T00:58:32;8.60;99.90
14370;DHT22;7268;50.792;0.252;2023-10-31T01:00:59;8.50;99.90
14370;DHT22;7268;50.792;0.252;2023-10-31T01:03:26;8.50;99.90
14370;DHT22;7268;50.792;0.252;2023-10-31T01:05:53;8.40;99.90
14370;DHT22;7268;50.792;0.252;2023-10-31T01:08:20;8.20;99.90
14370;DHT22;7268;50.792;0.252;2023-10-31T01:10:47;8.20;99.90
14370;DHT22;7268;50.792;0.252;2023-10-31T01:13:14;8.10;99.90
14370;DHT22;7268;50.792;0.252;2023-10-31T01:15:41;8.00;99.90
14370;DHT22;7268;50.792;0.252;2023-10-31T01:18:08;8.00;99.90
14370;DHT22;7268;50.792;0.252;2023-10-31T01:20:35;7.90;99.90
14370;DHT22;7268;50.792;0.252;2023-10-31T01:23:01;8.00;99.90
14370;DHT22;7268;50.792;0.252;2023-10-31T01:25:28;8.00;99.90
14370;DHT22;7268;50.792;0.252;2023-10-31T01:27:55;8.00;99.90
14370;DHT22;7268;50.792;0.252;2023-10-31T01:30:22;8.00;99.90
14370;DHT22;7268;50.792;0.252;2023-10-31T01:32:49;8.10;99.90
14370;DHT22;7268;50.792;0.252;2023-10-31T01:35:16;8.30;99.90
14370;DHT22;7268;50.792;0.252;2023-10-31T01:37:43;8.40;99.90
14370;DHT22;7268;50.792;0.252;2023-10-31T01:40:13;8.50;99.90
14370;DHT22;7268;50.792;0.252;2023-10-31T01:42:40;8.80;99.90
14370;DHT22;7268;50.792;0.252;2023-10-31T01:45:08;8.90;99.90
14370;DHT22;7268;50.792;0.252;2023-10-31T01:47:35;9.00;99.90
14370;DHT22;7268;50.792;0.252;2023-10-31T01:50:02;9.10;99.90
14370;DHT22;7268;50.792;0.252;2023-10-31T01:52:30;9.20;99.90
14370;DHT22;7268;50.792;0.252;2023-10-31T01:55:00;9.30;99.90
14370;DHT22;7268;50.792;0.252;2023-10-31T01:57:29;9.40;99.90
14370;DHT22;7268;50.792;0.252;2023-10-31T01:59:56;9.60;99.90
14370;DHT22;7268;50.792;0.252;2023-10-31T02:02:23;9.60;99.90
14370;DHT22;7268;50.792;0.252;2023-10-31T02:04:53;9.50;99.90
14370;DHT22;7268;50.792;0.252;2023-10-31T02:07:20;9.60;99.90
14370;DHT22;7268;50.792;0.252;2023-10-31T02:09:47;9.50;99.90
14370;DHT22;7268;50.792;0.252;2023-10-31T02:12:43;9.50;99.90
14370;DHT22;7268;50.792;0.252;2023-10-31T02:15:10;9.50;99.90
14370;DHT22;7268;50.792;0.252;2023-10-31T02:17:38;9.40;99.90
14370;DHT22;7268;50.792;0.252;2023-10-31T02:20:06;9.30;99.90
14370;DHT22;7268;50.792;0.252;2023-10-31T02:22:33;9.30;99.90
14370;DHT22;7268;50.792;0.252;2023-10-31T02:24:59;9.30;99.90
14370;DHT22;7268;50.792;0.252;2023-10-31T02:27:26;9.30;99.90
14370;DHT22;7268;50.792;0.252;2023-10-31T02:29:53;9.30;99.90
14370;DHT22;7268;50.792;0.252;2023-10-31T02:32:20;9.30;99.90
14370;DHT22;7268;50.792;0.252;2023-10-31T02:34:48;9.20;99.90
14370;DHT22;7268;50.792;0.252;2023-10-31T02:37:14;9.10;99.90
14370;DHT22;7268;50.792;0.252;2023-10-31T02:39:42;9.00;99.90
14370;DHT22;7268;50.792;0.252;2023-10-31T02:42:09;8.80;99.90
14370;DHT22;7268;50.792;0.252;2023-10-31T02:44:36;8.80;99.90
14370;DHT22;7268;50.792;0.252;2023-10-31T02:47:03;8.60;99.90
14370;DHT22;7268;50.792;0.252;2023-10-31T02:49:30;8.60;99.90
14370;DHT22;7268;50.792;0.252;2023-10-31T02:51:57;8.50;99.90
14370;DHT22;7268;50.792;0.252;2023-10-31T02:54:24;8.40;99.90
14370;DHT22;7268;50.792;0.252;2023-10-31T02:56:51;8.50;99.90
14370;DHT22;7268;50.792;0.252;2023-10-31T02:59:17;8.40;99.90
14370;DHT22;7268;50.792;0.252;2023-10-31T03:01:44;8.40;99.90
14370;DHT22;7268;50.792;0.252;2023-10-31T03:04:12;8.50;99.90
14370;DHT22;7268;50.792;0.252;2023-10-31T03:06:38;8.60;99.90
14370;DHT22;7268;50.792;0.252;2023-10-31T03:09:06;8.80;99.90
14370;DHT22;7268;50.792;0.252;2023-10-31T03:11:33;8.90;99.90
14370;DHT22;7268;50.792;0.252;2023-10-31T03:14:00;9.00;99.90
14370;DHT22;7268;50.792;0.252;2023-10-31T03:16:27;9.10;99.90
14370;DHT22;7268;50.792;0.252;2023-10-31T03:18:54;9.10;99.90
14370;DHT22;7268;50.792;0.252;2023-10-31T03:21:21;9.20;99.90
14370;DHT22;7268;50.792;0.252;2023-10-31T03:23:49;9.30;99.90
14370;DHT22;7268;50.792;0.252;2023-10-31T03:26:17;9.30;99.90
14370;DHT22;7268;50.792;0.252;2023-10-31T03:28:44;9.30;99.90
14370;DHT22;7268;50.792;0.252;2023-10-31T03:31:12;9.30;99.90
14370;DHT22;7268;50.792;0.252;2023-10-31T03:33:39;9.30;99.90
14370;DHT22;7268;50.792;0.252;2023-10-31T03:36:07;9.30;99.90
14370;DHT22;7268;50.792;0.252;2023-10-31T03:38:35;9.20;99.90
14370;DHT22;7268;50.792;0.252;2023-10-31T03:41:02;9.10;99.90
14370;DHT22;7268;50.792;0.252;2023-10-31T03:43:30;9.00;99.90
14370;DHT22;7268;50.792;0.252;2023-10-31T03:45:56;8.90;99.90
14370;DHT22;7268;50.792;0.252;2023-10-31T03:48:23;8.80;99.90
14370;DHT22;7268;50.792;0.252;2023-10-31T03:50:51;8.70;99.90
14370;DHT22;7268;50.792;0.252;2023-10-31T03:53:18;8.70;99.90
14370;DHT22;7268;50.792;0.252;2023-10-31T03:55:45;8.70;99.90
14370;DHT22;7268;50.792;0.252;2023-10-31T03:58:12;8.70;99.90
14370;DHT22;7268;50.792;0.252;2023-10-31T04:00:39;8.70;99.90
14370;DHT22;7268;50.792;0.252;2023-10-31T04:03:08;8.70;99.90
14370;DHT22;7268;50.792;0.252;2023-10-31T04:05:35;8.70;99.90
14370;DHT22;7268;50.792;0.252;2023-10-31T04:08:02;8.80;99.90
14370;DHT22;7268;50.792;0.252;2023-10-31T04:10:29;8.90;99.90
14370;DHT22;7268;50.792;0.252;2023-10-31T04:12:56;9.00;99.90
14370;DHT22;7268;50.792;0.252;2023-10-31T04:15:22;9.20;99.90
14370;DHT22;7268;50.792;0.252;2023-10-31T04:17:49;9.50;99.90
14370;DHT22;7268;50.792;0.252;2023-10-31T04:20:16;9.50;99.90
14370;DHT22;7268;50.792;0.252;2023-10-31T04:22:43;9.30;99.90
14370;DHT22;7268;50.792;0.252;2023-10-31T04:25:10;9.10;99.90
14370;DHT22;7268;50.792;0.252;2023-10-31T04:27:37;9.00;99.90
14370;DHT22;7268;50.792;0.252;2023-10-31T04:30:04;9.00;99.90
14370;DHT22;7268;50.792;0.252;2023-10-31T04:32:32;9.00;99.90
14370;DHT22;7268;50.792;0.252;2023-10-31T04:34:59;8.90;99.90
14370;DHT22;7268;50.792;0.252;2023-10-31T04:37:25;9.00;99.90
14370;DHT22;7268;50.792;0.252;2023-10-31T04:39:53;9.10;99.90
14370;DHT22;7268;50.792;0.252;2023-10-31T04:42:19;9.10;99.90
14370;DHT22;7268;50.792;0.252;2023-10-31T04:44:47;9.20;99.90
14370;DHT22;7268;50.792;0.252;2023-10-31T04:47:14;9.30;99.90
14370;DHT22;7268;50.792;0.252;2023-10-31T04:49:42;9.20;99.90
14370;DHT22;7268;50.792;0.252;2023-10-31T04:52:08;9.30;99.90
14370;DHT22;7268;50.792;0.252;2023-10-31T04:54:36;9.40;99.90
14370;DHT22;7268;50.792;0.252;2023-10-31T04:57:03;9.40;99.90
14370;DHT22;7268;50.792;0.252;2023-10-31T04:59:30;9.40;99.90
14370;DHT22;7268;50.792;0.252;2023-10-31T05:01:58;9.40;99.90
14370;DHT22;7268;50.792;0.252;2023-10-31T05:04:25;9.50;99.90
14370;DHT22;7268;50.792;0.252;2023-10-31T05:06:53;9.50;99.90
14370;DHT22;7268;50.792;0.252;2023-10-31T05:09:20;9.60;99.90
14370;DHT22;7268;50.792;0.252;2023-10-31T05:11:47;9.60;99.90
14370;DHT22;7268;50.792;0.252;2023-10-31T05:14:14;9.70;99.90
14370;DHT22;7268;50.792;0.252;2023-10-31T05:16:44;9.80;99.90
14370;DHT22;7268;50.792;0.252;2023-10-31T05:19:11;9.90;99.90
14370;DHT22;7268;50.792;0.252;2023-10-31T05:21:38;10.00;99.90
14370;DHT22;7268;50.792;0.252;2023-10-31T05:24:06;10.00;99.90
14370;DHT22;7268;50.792;0.252;2023-10-31T05:26:33;10.00;99.90
14370;DHT22;7268;50.792;0.252;2023-10-31T05:29:00;10.00;99.90
14370;DHT22;7268;50.792;0.252;2023-10-31T05:31:27;9.90;99.90
14370;DHT22;7268;50.792;0.252;2023-10-31T05:33:54;9.90;99.90
14370;DHT22;7268;50.792;0.252;2023-10-31T05:36:22;9.90;99.90
14370;DHT22;7268;50.792;0.252;2023-10-31T05:38:49;9.90;99.90
14370;DHT22;7268;50.792;0.252;2023-10-31T05:41:16;9.90;99.90
14370;DHT22;7268;50.792;0.252;2023-10-31T05:43:43;9.90;99.90
14370;DHT22;7268;50.792;0.252;2023-10-31T05:46:10;10.00;99.90
14370;DHT22;7268;50.792;0.252;2023-10-31T05:48:40;10.00;99.90
14370;DHT22;7268;50.792;0.252;2023-10-31T05:51:15;10.00;99.90
14370;DHT22;7268;50.792;0.252;2023-10-31T05:53:44;10.00;99.90
14370;DHT22;7268;50.792;0.252;2023-10-31T05:56:13;10.00;99.90
14370;DHT22;7268;50.792;0.252;2023-10-31T05:58:41;10.00;99.90
14370;DHT22;7268;50.792;0.252;2023-10-31T06:01:08;9.90;99.90
14370;DHT22;7268;50.792;0.252;2023-10-31T06:03:36;10.00;99.90
14370;DHT22;7268;50.792;0.252;2023-10-31T06:06:03;9.90;99.90
14370;DHT22;7268;50.792;0.252;2023-10-31T06:08:30;9.90;99.90
14370;DHT22;7268;50.792;0.252;2023-10-31T06:10:58;9.90;99.90
14370;DHT22;7268;50.792;0.252;2023-10-31T06:13:26;9.90;99.90
14370;DHT22;7268;50.792;0.252;2023-10-31T06:15:54;9.90;99.90
14370;DHT22;7268;50.792;0.252;2023-10-31T06:18:27;9.90;99.90
14370;DHT22;7268;50.792;0.252;2023-10-31T06:20:54;9.90;99.90
14370;DHT22;7268;50.792;0.252;2023-10-31T06:23:21;9.90;99.90
14370;DHT22;7268;50.792;0.252;2023-10-31T06:25:48;9.90;99.90
14370;DHT22;7268;50.792;0.252;2023-10-31T06:28:15;9.90;99.90
14370;DHT22;7268;50.792;0.252;2023-10-31T06:30:42;9.90;99.90
14370;DHT22;7268;50.792;0.252;2023-10-31T06:33:09;10.00;99.90
14370;DHT22;7268;50.792;0.252;2023-10-31T06:35:37;10.00;99.90
14370;DHT22;7268;50.792;0.252;2023-10-31T06:38:04;10.00;99.90
14370;DHT22;7268;50.792;0.252;2023-10-31T06:40:31;10.00;99.90
14370;DHT22;7268;50.792;0.252;2023-10-31T06:42:58;10.10;99.90
14370;DHT22;7268;50.792;0.252;2023-10-31T06:45:25;10.10;99.90
14370;DHT22;7268;50.792;0.252;2023-10-31T06:47:53;10.20;99.90
14370;DHT22;7268;50.792;0.252;2023-10-31T06:50:20;10.10;99.90
14370;DHT22;7268;50.792;0.252;2023-10-31T06:52:47;10.10;99.90
14370;DHT22;7268;50.792;0.252;2023-10-31T06:55:14;10.10;99.90
14370;DHT22;7268;50.792;0.252;2023-10-31T06:57:41;10.10;99.90
14370;DHT22;7268;50.792;0.252;2023-10-31T07:00:10;10.20;99.90
14370;DHT22;7268;50.792;0.252;2023-10-31T07:02:38;10.20;99.90
14370;DHT22;7268;50.792;0.252;2023-10-31T07:05:05;10.20;99.90
14370;DHT22;7268;50.792;0.252;2023-10-31T07:07:32;10.30;99.90
14370;DHT22;7268;50.792;0.252;2023-10-31T07:09:59;10.30;99.90
14370;DHT22;7268;50.792;0.252;2023-10-31T07:12:27;10.40;99.90
14370;DHT22;7268;50.792;0.252;2023-10-31T07:14:54;10.40;99.90
14370;DHT22;7268;50.792;0.252;2023-10-31T07:17:21;10.40;99.90
14370;DHT22;7268;50.792;0.252;2023-10-31T07:19:48;10.50;99.90
14370;DHT22;7268;50.792;0.252;2023-10-31T07:22:15;10.50;99.90
14370;DHT22;7268;50.792;0.252;2023-10-31T07:24:42;10.50;99.90
14370;DHT22;7268;50.792;0.252;2023-10-31T07:27:09;10.50;99.90
14370;DHT22;7268;50.792;0.252;2023-10-31T07:29:39;10.60;99.90
14370;DHT22;7268;50.792;0.252;2023-10-31T07:32:08;10.70;99.90
14370;DHT22;7268;50.792;0.252;2023-10-31T07:34:40;10.80;99.90
14370;DHT22;7268;50.792;0.252;2023-10-31T07:37:08;10.80;99.90
14370;DHT22;7268;50.792;0.252;2023-10-31T07:39:35;10.80;99.90
14370;DHT22;7268;50.792;0.252;2023-10-31T07:42:02;10.80;99.90
14370;DHT22;7268;50.792;0.252;2023-10-31T07:44:29;10.80;99.90
14370;DHT22;7268;50.792;0.252;2023-10-31T07:46:57;10.80;99.90
14370;DHT22;7268;50.792;0.252;2023-10-31T07:49:24;10.80;99.90
14370;DHT22;7268;50.792;0.252;2023-10-31T07:51:51;10.80;99.90
14370;DHT22;7268;50.792;0.252;2023-10-31T07:54:18;10.80;99.90
14370;DHT22;7268;50.792;0.252;2023-10-31T07:56:45;10.80;99.90
14370;DHT22;7268;50.792;0.252;2023-10-31T07:59:12;10.80;99.90
14370;DHT22;7268;50.792;0.252;2023-10-31T08:01:39;10.90;99.90
14370;DHT22;7268;50.792;0.252;2023-10-31T08:04:06;10.90;99.90
14370;DHT22;7268;50.792;0.252;2023-10-31T08:06:33;10.90;99.90
14370;DHT22;7268;50.792;0.252;2023-10-31T08:09:00;11.00;99.90
14370;DHT22;7268;50.792;0.252;2023-10-31T08:11:27;11.00;99.90
14370;DHT22;7268;50.792;0.252;2023-10-31T08:13:54;11.10;99.90
14370;DHT22;7268;50.792;0.252;2023-10-31T08:16:21;11.20;99.90
14370;DHT22;7268;50.792;0.252;2023-10-31T08:18:48;11.20;99.90
14370;DHT22;7268;50.792;0.252;2023-10-31T08:21:15;11.40;99.90
14370;DHT22;7268;50.792;0.252;2023-10-31T08:23:42;11.40;99.90
14370;DHT22;7268;50.792;0.252;2023-10-31T08:26:12;11.40;99.90
14370;DHT22;7268;50.792;0.252;2023-10-31T08:28:39;11.50;99.90
14370;DHT22;7268;50.792;0.252;2023-10-31T08:31:07;11.50;99.90
14370;DHT22;7268;50.792;0.252;2023-10-31T08:33:34;11.50;99.90
14370;DHT22;7268;50.792;0.252;2023-10-31T08:36:01;11.50;99.90
14370;DHT22;7268;50.792;0.252;2023-10-31T08:38:28;11.50;99.90
14370;DHT22;7268;50.792;0.252;2023-10-31T08:40:58;11.50;99.90
14370;DHT22;7268;50.792;0.252;2023-10-31T08:43:26;11.60;99.90
14370;DHT22;7268;50.792;0.252;2023-10-31T08:45:54;11.60;99.90
14370;DHT22;7268;50.792;0.252;2023-10-31T08:48:20;11.70;99.90
14370;DHT22;7268;50.792;0.252;2023-10-31T08:50:48;11.80;99.90
14370;DHT22;7268;50.792;0.252;2023-10-31T08:53:15;11.90;99.90
14370;DHT22;7268;50.792;0.252;2023-10-31T08:55:42;11.90;99.90
14370;DHT22;7268;50.792;0.252;2023-10-31T08:58:12;11.90;99.90
14370;DHT22;7268;50.792;0.252;2023-10-31T09:00:40;12.10;99.90
14370;DHT22;7268;50.792;0.252;2023-10-31T09:03:10;12.20;99.90
14370;DHT22;7268;50.792;0.252;2023-10-31T09:05:37;12.20;99.90
14370;DHT22;7268;50.792;0.252;2023-10-31T09:08:04;13.00;99.90
14370;DHT22;7268;50.792;0.252;2023-10-31T09:10:33;13.70;99.90
14370;DHT22;7268;50.792;0.252;2023-10-31T09:13:00;13.60;99.90
14370;DHT22;7268;50.792;0.252;2023-10-31T09:15:27;13.40;99.90
14370;DHT22;7268;50.792;0.252;2023-10-31T09:17:54;13.10;99.90
14370;DHT22;7268;50.792;0.252;2023-10-31T09:20:21;13.00;99.90
14370;DHT22;7268;50.792;0.252;2023-10-31T09:22:48;13.00;99.90
14370;DHT22;7268;50.792;0.252;2023-10-31T09:25:15;13.00;99.90
14370;DHT22;7268;50.792;0.252;2023-10-31T09:27:42;13.00;99.90
14370;DHT22;7268;50.792;0.252;2023-10-31T09:30:09;13.00;99.90
14370;DHT22;7268;50.792;0.252;2023-10-31T09:32:36;13.00;99.90
14370;DHT22;7268;50.792;0.252;2023-10-31T09:35:03;13.20;99.90
14370;DHT22;7268;50.792;0.252;2023-10-31T09:37:31;13.10;99.90
14370;DHT22;7268;50.792;0.252;2023-10-31T09:39:58;13.40;99.90
14370;DHT22;7268;50.792;0.252;2023-10-31T09:42:25;13.80;99.90
14370;DHT22;7268;50.792;0.252;2023-10-31T09:44:52;14.90;99.90
14370;DHT22;7268;50.792;0.252;2023-10-31T09:47:20;16.30;99.90
14370;DHT22;7268;50.792;0.252;2023-10-31T09:49:47;18.30;99.90
14370;DHT22;7268;50.792;0.252;2023-10-31T09:52:14;19.60;99.90
14370;DHT22;7268;50.792;0.252;2023-10-31T09:54:41;20.90;97.10
14370;DHT22;7268;50.792;0.252;2023-10-31T09:57:14;21.50;92.40
14370;DHT22;7268;50.792;0.252;2023-10-31T09:59:41;21.40;91.90
14370;DHT22;7268;50.792;0.252;2023-10-31T10:02:08;22.00;90.30
14370;DHT22;7268;50.792;0.252;2023-10-31T10:04:37;21.70;91.80
14370;DHT22;7268;50.792;0.252;2023-10-31T10:07:05;21.90;92.60
14370;DHT22;7268;50.792;0.252;2023-10-31T10:09:32;22.50;91.20
14370;DHT22;7268;50.792;0.252;2023-10-31T10:12:00;22.80;85.60
14370;DHT22;7268;50.792;0.252;2023-10-31T10:14:29;22.20;89.50
14370;DHT22;7268;50.792;0.252;2023-10-31T10:16:59;22.70;90.10
14370;DHT22;7268;50.792;0.252;2023-10-31T10:19:26;23.10;86.90
14370;DHT22;7268;50.792;0.252;2023-10-31T10:21:57;22.00;87.90
14370;DHT22;7268;50.792;0.252;2023-10-31T10:24:24;21.30;91.60
14370;DHT22;7268;50.792;0.252;2023-10-31T10:26:51;20.00;93.50
14370;DHT22;7268;50.792;0.252;2023-10-31T10:29:18;19.40;96.00
14370;DHT22;7268;50.792;0.252;2023-10-31T10:31:46;20.00;94.90
14370;DHT22;7268;50.792;0.252;2023-10-31T10:34:15;21.00;93.50
14370;DHT22;7268;50.792;0.252;2023-10-31T10:36:47;22.10;90.50
14370;DHT22;7268;50.792;0.252;2023-10-31T10:39:21;22.30;90.40
14370;DHT22;7268;50.792;0.252;2023-10-31T10:41:55;21.90;88.40
14370;DHT22;7268;50.792;0.252;2023-10-31T10:44:33;21.80;90.10
14370;DHT22;7268;50.792;0.252;2023-10-31T10:47:06;21.30;92.70
14370;DHT22;7268;50.792;0.252;2023-10-31T10:49:35;21.90;91.70
14370;DHT22;7268;50.792;0.252;2023-10-31T10:55:31;21.60;91.40
14370;DHT22;7268;50.792;0.252;2023-10-31T10:57:56;21.20;92.20
14370;DHT22;7268;50.792;0.252;2023-10-31T11:00:27;20.10;94.60
14370;DHT22;7268;50.792;0.252;2023-10-31T11:02:56;19.10;97.70
14370;DHT22;7268;50.792;0.252;2023-10-31T11:05:24;19.00;97.30
14370;DHT22;7268;50.792;0.252;2023-10-31T11:07:52;19.30;98.70
14370;DHT22;7268;50.792;0.252;2023-10-31T11:10:20;20.50;96.70
14370;DHT22;7268;50.792;0.252;2023-10-31T11:12:48;20.90;93.10
14370;DHT22;7268;50.792;0.252;2023-10-31T11:15:16;21.60;92.90
14370;DHT22;7268;50.792;0.252;2023-10-31T11:17:45;21.70;87.30
14370;DHT22;7268;50.792;0.252;2023-10-31T11:20:15;20.30;92.90
14370;DHT22;7268;50.792;0.252;2023-10-31T11:22:46;20.50;94.30
14370;DHT22;7268;50.792;0.252;2023-10-31T11:25:18;21.50;92.00
14370;DHT22;7268;50.792;0.252;2023-10-31T11:28:15;22.70;90.40
14370;DHT22;7268;50.792;0.252;2023-10-31T11:30:43;22.30;89.20
14370;DHT22;7268;50.792;0.252;2023-10-31T11:33:15;21.60;90.10
14370;DHT22;7268;50.792;0.252;2023-10-31T11:35:42;22.10;90.60
14370;DHT22;7268;50.792;0.252;2023-10-31T11:38:11;22.40;90.20
14370;DHT22;7268;50.792;0.252;2023-10-31T11:43:15;21.80;87.40
14370;DHT22;7268;50.792;0.252;2023-10-31T11:45:44;21.40;91.00
14370;DHT22;7268;50.792;0.252;2023-10-31T11:48:15;21.00;90.00
14370;DHT22;7268;50.792;0.252;2023-10-31T11:50:42;20.20;91.40
14370;DHT22;7268;50.792;0.252;2023-10-31T11:53:09;19.50;93.30
14370;DHT22;7268;50.792;0.252;2023-10-31T11:55:41;19.00;95.30
14370;DHT22;7268;50.792;0.252;2023-10-31T11:58:24;18.70;95.40
14370;DHT22;7268;50.792;0.252;2023-10-31T12:01:04;17.90;96.30
14370;DHT22;7268;50.792;0.252;2023-10-31T12:03:41;17.30;99.20
14370;DHT22;7268;50.792;0.252;2023-10-31T12:06:11;17.50;99.60
14370;DHT22;7268;50.792;0.252;2023-10-31T12:08:42;17.90;98.60
14370;DHT22;7268;50.792;0.252;2023-10-31T12:11:14;17.30;98.30
14370;DHT22;7268;50.792;0.252;2023-10-31T12:13:57;16.50;99.90
14370;DHT22;7268;50.792;0.252;2023-10-31T12:16:27;16.20;99.90
14370;DHT22;7268;50.792;0.252;2023-10-31T12:18:58;16.00;99.90
14370;DHT22;7268;50.792;0.252;2023-10-31T12:21:45;16.20;99.90
14370;DHT22;7268;50.792;0.252;2023-10-31T12:24:16;16.60;99.90
14370;DHT22;7268;50.792;0.252;2023-10-31T12:26:44;16.80;99.90
14370;DHT22;7268;50.792;0.252;2023-10-31T12:29:17;17.00;99.90
14370;DHT22;7268;50.792;0.252;2023-10-31T12:31:50;16.80;99.90
14370;DHT22;7268;50.792;0.252;2023-10-31T12:34:20;16.90;99.90
14370;DHT22;7268;50.792;0.252;2023-10-31T12:36:50;17.10;99.90
14370;DHT22;7268;50.792;0.252;2023-10-31T12:39:22;16.90;99.90
14370;DHT22;7268;50.792;0.252;2023-10-31T12:41:49;17.00;99.90
14370;DHT22;7268;50.792;0.252;2023-10-31T12:44:22;16.90;99.40
14370;DHT22;7268;50.792;0.252;2023-10-31T12:46:50;16.60;99.20
14370;DHT22;7268;50.792;0.252;2023-10-31T12:49:19;16.30;99.90
14370;DHT22;7268;50.792;0.252;2023-10-31T12:54:36;15.70;99.90
14370;DHT22;7268;50.792;0.252;2023-10-31T12:57:06;15.40;99.90
14370;DHT22;7268;50.792;0.252;2023-10-31T12:59:34;15.30;99.90
14370;DHT22;7268;50.792;0.252;2023-10-31T13:02:03;15.40;99.90
14370;DHT22;7268;50.792;0.252;2023-10-31T13:04:32;15.50;99.90
14370;DHT22;7268;50.792;0.252;2023-10-31T13:07:01;15.50;99.90
14370;DHT22;7268;50.792;0.252;2023-10-31T13:09:32;15.30;99.90
14370;DHT22;7268;50.792;0.252;2023-10-31T13:12:08;15.20;99.90
14370;DHT22;7268;50.792;0.252;2023-10-31T13:14:38;15.20;99.90
14370;DHT22;7268;50.792;0.252;2023-10-31T13:17:06;15.10;99.90
14370;DHT22;7268;50.792;0.252;2023-10-31T13:19:33;14.90;99.90
14370;DHT22;7268;50.792;0.252;2023-10-31T13:22:00;14.90;99.90
14370;DHT22;7268;50.792;0.252;2023-10-31T13:24:27;14.80;99.90
14370;DHT22;7268;50.792;0.252;2023-10-31T13:26:54;14.70;99.90
14370;DHT22;7268;50.792;0.252;2023-10-31T13:29:21;14.80;99.90
14370;DHT22;7268;50.792;0.252;2023-10-31T13:31:48;14.70;99.90
14370;DHT22;7268;50.792;0.252;2023-10-31T13:34:15;14.70;99.90
14370;DHT22;7268;50.792;0.252;2023-10-31T13:36:42;14.70;99.90
14370;DHT22;7268;50.792;0.252;2023-10-31T13:39:11;14.70;99.90
14370;DHT22;7268;50.792;0.252;2023-10-31T13:41:38;14.80;99.90
14370;DHT22;7268;50.792;0.252;2023-10-31T13:44:05;14.70;99.90
14370;DHT22;7268;50.792;0.252;2023-10-31T13:46:32;14.70;99.90
14370;DHT22;7268;50.792;0.252;2023-10-31T13:48:59;14.70;99.90
14370;DHT22;7268;50.792;0.252;2023-10-31T13:51:26;14.70;99.90
14370;DHT22;7268;50.792;0.252;2023-10-31T13:53:53;14.80;99.90
14370;DHT22;7268;50.792;0.252;2023-10-31T13:56:20;14.80;99.90
14370;DHT22;7268;50.792;0.252;2023-10-31T13:58:47;14.80;99.90
14370;DHT22;7268;50.792;0.252;2023-10-31T14:01:14;14.80;99.90
14370;DHT22;7268;50.792;0.252;2023-10-31T14:03:41;14.90;99.90
14370;DHT22;7268;50.792;0.252;2023-10-31T14:06:12;14.80;99.90
14370;DHT22;7268;50.792;0.252;2023-10-31T14:08:39;14.70;99.90
14370;DHT22;7268;50.792;0.252;2023-10-31T14:11:06;14.70;99.90
14370;DHT22;7268;50.792;0.252;2023-10-31T14:13:33;14.70;99.90
14370;DHT22;7268;50.792;0.252;2023-10-31T14:16:02;14.70;99.90
14370;DHT22;7268;50.792;0.252;2023-10-31T14:18:29;14.70;99.90
14370;DHT22;7268;50.792;0.252;2023-10-31T14:20:56;14.60;99.90
14370;DHT22;7268;50.792;0.252;2023-10-31T14:23:23;14.60;99.90
14370;DHT22;7268;50.792;0.252;2023-10-31T14:25:52;14.60;99.90
14370;DHT22;7268;50.792;0.252;2023-10-31T14:28:19;14.60;99.90
14370;DHT22;7268;50.792;0.252;2023-10-31T14:30:46;14.50;99.90
14370;DHT22;7268;50.792;0.252;2023-10-31T14:33:13;14.50;99.90
14370;DHT22;7268;50.792;0.252;2023-10-31T14:35:40;14.50;99.90
14370;DHT22;7268;50.792;0.252;2023-10-31T14:38:07;14.50;99.90
14370;DHT22;7268;50.792;0.252;2023-10-31T14:40:34;14.60;99.90
14370;DHT22;7268;50.792;0.252;2023-10-31T14:43:01;14.60;99.90
14370;DHT22;7268;50.792;0.252;2023-10-31T14:45:28;14.60;99.90
14370;DHT22;7268;50.792;0.252;2023-10-31T14:47:55;14.70;99.90
14370;DHT22;7268;50.792;0.252;2023-10-31T14:50:22;14.70;99.90
14370;DHT22;7268;50.792;0.252;2023-10-31T14:52:49;14.60;99.90
14370;DHT22;7268;50.792;0.252;2023-10-31T14:55:15;14.60;99.90
14370;DHT22;7268;50.792;0.252;2023-10-31T14:57:42;14.60;99.90
14370;DHT22;7268;50.792;0.252;2023-10-31T15:00:09;14.50;99.90
14370;DHT22;7268;50.792;0.252;2023-10-31T15:02:38;14.40;99.90
14370;DHT22;7268;50.792;0.252;2023-10-31T15:05:06;14.40;99.90
14370;DHT22;7268;50.792;0.252;2023-10-31T15:07:33;14.30;99.90
14370;DHT22;7268;50.792;0.252;2023-10-31T15:10:00;14.30;99.90
14370;DHT22;7268;50.792;0.252;2023-10-31T15:12:29;14.20;99.90
14370;DHT22;7268;50.792;0.252;2023-10-31T15:14:56;14.20;99.90
14370;DHT22;7268;50.792;0.252;2023-10-31T15:17:23;14.20;99.90
14370;DHT22;7268;50.792;0.252;2023-10-31T15:19:50;14.20;99.90
14370;DHT22;7268;50.792;0.252;2023-10-31T15:22:17;14.20;99.90
14370;DHT22;7268;50.792;0.252;2023-10-31T15:24:44;14.30;99.90
14370;DHT22;7268;50.792;0.252;2023-10-31T15:27:11;14.30;99.90
14370;DHT22;7268;50.792;0.252;2023-10-31T15:29:41;14.30;99.90
14370;DHT22;7268;50.792;0.252;2023-10-31T15:32:08;14.30;99.90
14370;DHT22;7268;50.792;0.252;2023-10-31T15:34:38;14.30;99.90
14370;DHT22;7268;50.792;0.252;2023-10-31T15:37:07;14.30;99.90
14370;DHT22;7268;50.792;0.252;2023-10-31T15:39:35;14.30;99.90
14370;DHT22;7268;50.792;0.252;2023-10-31T15:42:02;14.40;99.90
14370;DHT22;7268;50.792;0.252;2023-10-31T15:44:29;14.40;99.90
14370;DHT22;7268;50.792;0.252;2023-10-31T15:46:56;14.30;99.90
14370;DHT22;7268;50.792;0.252;2023-10-31T15:49:23;14.20;99.90
14370;DHT22;7268;50.792;0.252;2023-10-31T15:51:49;14.20;99.90
14370;DHT22;7268;50.792;0.252;2023-10-31T15:54:16;14.20;99.90
14370;DHT22;7268;50.792;0.252;2023-10-31T15:56:43;14.10;99.90
14370;DHT22;7268;50.792;0.252;2023-10-31T15:59:11;14.10;99.90
14370;DHT22;7268;50.792;0.252;2023-10-31T16:01:37;14.20;99.90
14370;DHT22;7268;50.792;0.252;2023-10-31T16:04:04;14.10;99.90
14370;DHT22;7268;50.792;0.252;2023-10-31T16:06:31;14.10;99.90